Time;durP1;ratioP1;P1;durP2;ratioP2;P2;SDS_P1;SDS_P2;PMS_P1;PMS_P2;Temp;Humidity;BMP_temperature;BMP_pressure;BME280_temperature;BME280_humidity;BME280_pressure;Samples;Min_cycle;Max_cycle;Signal;HPM_P1;HPM_P2
2022/08/19 00:01:08;;;;;;;24.77;21.60;;;21.40;1.00;;;;;;5010158;28;20521;-86
2022/08/19 00:03:34;;;;;;;25.13;21.47;;;21.40;1.00;;;;;;4987836;28;20190;-86
2022/08/19 00:05:59;;;;;;;26.00;23.30;;;21.30;1.00;;;;;;5006630;28;20492;-86
2022/08/19 00:08:25;;;;;;;26.53;21.80;;;21.30;39.50;;;;;;4987671;28;20445;-85
2022/08/19 00:10:51;;;;;;;25.07;22.57;;;21.20;96.60;;;;;;4991033;28;20193;-86
2022/08/19 00:13:16;;;;;;;26.60;23.90;;;21.20;99.90;;;;;;5003119;28;20187;-86
2022/08/19 00:15:44;;;;;;;26.97;24.17;;;21.10;99.90;;;;;;4986573;28;20222;-86
2022/08/19 00:18:10;;;;;;;25.70;23.10;;;21.10;99.90;;;;;;5003441;28;20177;-86
2022/08/19 00:20:38;;;;;;;24.77;22.47;;;21.10;99.90;;;;;;4983865;28;20441;-86
2022/08/19 00:23:03;;;;;;;25.57;23.00;;;21.00;99.90;;;;;;4998867;28;20183;-86
2022/08/19 00:25:29;;;;;;;24.93;22.37;;;21.00;1.00;;;;;;5011992;28;20439;-86
2022/08/19 00:27:55;;;;;;;26.13;23.60;;;21.00;1.00;;;;;;4984167;28;20190;-86
2022/08/19 00:30:21;;;;;;;24.43;21.97;;;21.00;1.00;;;;;;4991091;28;20188;-86
2022/08/19 00:32:46;;;;;;;24.23;21.73;;;21.00;1.00;;;;;;5005189;28;20449;-86
2022/08/19 00:35:12;;;;;;;26.53;23.63;;;21.00;1.00;;;;;;5006811;28;20237;-85
2022/08/19 00:37:42;;;;;;;25.20;22.70;;;21.00;1.00;;;;;;5007213;28;20219;-86
2022/08/19 00:40:10;;;;;;;26.67;23.97;;;20.90;1.00;;;;;;5004874;28;20177;-85
2022/08/19 00:42:35;;;;;;;25.73;23.20;;;20.90;1.00;;;;;;5001429;28;20489;-86
2022/08/19 00:45:02;;;;;;;24.77;22.30;;;20.90;10.00;;;;;;4990037;28;20449;-86
2022/08/19 00:47:27;;;;;;;24.57;22.10;;;20.90;38.00;;;;;;4995278;28;20585;-86
2022/08/19 00:49:56;;;;;;;26.60;21.60;;;20.90;23.70;;;;;;5011276;28;20475;-86
2022/08/19 00:52:33;;;;;;;22.87;20.77;;;20.90;24.20;;;;;;5006268;28;20190;-86
2022/08/19 00:54:59;;;;;;;23.00;20.80;;;20.80;19.30;;;;;;5015363;28;20479;-86
2022/08/19 00:57:35;;;;;;;23.57;21.27;;;20.80;1.00;;;;;;4992545;28;20459;-86
2022/08/19 01:00:01;;;;;;;24.57;21.67;;;20.70;64.30;;;;;;5011132;28;20428;-86
2022/08/19 01:02:28;;;;;;;22.73;20.40;;;20.60;99.90;;;;;;5005858;28;20434;-86
2022/08/19 01:04:54;;;;;;;24.60;22.00;;;20.60;99.90;;;;;;4988215;28;20977;-86
2022/08/19 01:07:20;;;;;;;24.00;21.60;;;20.50;99.90;;;;;;4986417;28;20457;-86
2022/08/19 01:09:46;;;;;;;26.33;23.50;;;20.50;99.90;;;;;;5008062;28;20449;-85
2022/08/19 01:12:11;;;;;;;26.43;22.93;;;20.40;99.90;;;;;;4990178;28;20221;-85
2022/08/19 01:14:39;;;;;;;31.53;24.50;;;20.40;1.00;;;;;;4994335;28;20450;-86
2022/08/19 01:17:07;;;;;;;27.53;24.60;;;20.40;1.00;;;;;;4995208;28;20219;-85
2022/08/19 01:19:37;;;;;;;25.23;22.70;;;20.30;1.00;;;;;;4988319;28;20441;-85
2022/08/19 01:22:16;;;;;;;25.77;23.20;;;20.30;1.00;;;;;;4992291;28;20430;-86
2022/08/19 01:24:41;;;;;;;26.47;23.77;;;20.30;1.00;;;;;;5008967;28;20501;-86
2022/08/19 01:27:08;;;;;;;29.40;26.30;;;20.20;31.50;;;;;;4990770;28;20891;-86
2022/08/19 01:29:36;;;;;;;30.80;27.70;;;20.20;99.90;;;;;;4991514;28;20215;-86
2022/08/19 01:32:02;;;;;;;31.90;28.70;;;20.20;99.90;;;;;;4992227;28;20583;-85
2022/08/19 01:34:28;;;;;;;32.37;29.20;;;20.20;99.90;;;;;;4986012;28;20535;-86
2022/08/19 01:36:53;;;;;;;33.37;29.97;;;20.10;99.90;;;;;;4996171;28;20813;-86
2022/08/19 01:39:23;;;;;;;36.23;32.43;;;20.10;1.00;;;;;;4994570;28;20176;-85
2022/08/19 01:41:49;;;;;;;35.03;31.50;;;20.10;1.00;;;;;;4987726;28;20394;-86
2022/08/19 01:44:15;;;;;;;34.53;30.93;;;20.00;1.00;;;;;;5003238;28;20507;-85
2022/08/19 01:46:43;;;;;;;33.93;30.50;;;20.00;1.00;;;;;;5010014;28;20446;-85
2022/08/19 01:49:09;;;;;;;35.33;31.77;;;20.00;12.00;;;;;;5004474;28;20507;-85
2022/08/19 01:51:36;;;;;;;33.83;30.50;;;19.90;75.20;;;;;;5006637;28;20442;-86
2022/08/19 01:54:01;;;;;;;35.07;31.37;;;19.90;99.90;;;;;;5004009;28;20807;-86
2022/08/19 01:56:27;;;;;;;38.37;30.57;;;19.80;99.90;;;;;;5010424;28;20468;-86
2022/08/19 01:59:00;;;;;;;38.20;33.30;;;19.70;99.90;;;;;;5003309;28;20204;-86
2022/08/19 02:01:25;;;;;;;37.77;33.93;;;19.70;99.90;;;;;;4987484;28;20444;-86
2022/08/19 02:03:53;;;;;;;40.13;36.07;;;19.60;1.00;;;;;;5005057;28;20454;-86
2022/08/19 02:06:19;;;;;;;37.90;34.17;;;19.60;1.00;;;;;;5012685;28;20205;-85
2022/08/19 02:08:45;;;;;;;41.47;37.17;;;19.60;99.90;;;;;;5008098;28;20850;-86
2022/08/19 02:11:22;;;;;;;42.40;38.00;;;19.50;1.00;;;;;;4986811;28;20839;-86
2022/08/19 02:13:49;;;;;;;42.47;38.10;;;19.50;99.90;;;;;;4998007;28;20867;-86
2022/08/19 02:16:16;;;;;;;41.10;36.13;;;19.40;99.90;;;;;;4990799;28;20523;-86
2022/08/19 02:18:41;;;;;;;41.97;37.67;;;19.40;1.00;;;;;;4993651;28;20465;-86
2022/08/19 02:21:07;;;;;;;43.53;39.23;;;19.40;1.00;;;;;;5005658;28;20469;-86
2022/08/19 02:23:32;;;;;;;45.47;40.77;;;19.30;99.90;;;;;;4992982;28;20185;-86
2022/08/19 02:25:58;;;;;;;45.53;40.67;;;19.30;99.90;;;;;;4990533;28;20217;-86
2022/08/19 02:28:24;;;;;;;49.10;42.50;;;19.20;99.90;;;;;;4987094;28;20186;-85
2022/08/19 02:30:49;;;;;;;47.17;42.03;;;19.20;1.00;;;;;;5011533;28;20209;-86
2022/08/19 02:33:16;;;;;;;47.33;42.40;;;19.20;1.00;;;;;;5006714;28;20206;-85
2022/08/19 02:35:44;;;;;;;49.53;44.43;;;19.10;1.00;;;;;;4988949;28;20219;-85
2022/08/19 02:38:27;;;;;;;51.43;43.53;;;19.10;1.00;;;;;;4995277;28;20861;-86
2022/08/19 02:41:02;;;;;;;48.90;43.70;;;19.10;48.20;;;;;;4991482;28;20808;-86
2022/08/19 02:43:32;;;;;;;50.13;44.77;;;19.10;99.90;;;;;;4988177;28;20497;-86
2022/08/19 02:45:58;;;;;;;52.63;46.90;;;19.00;99.90;;;;;;5004138;28;21114;-86
2022/08/19 02:48:25;;;;;;;54.50;47.70;;;19.00;99.90;;;;;;4989354;28;20586;-86
2022/08/19 02:50:55;;;;;;;51.23;45.47;;;19.00;99.90;;;;;;5007200;28;20263;-86
2022/08/19 02:53:22;;;;;;;53.20;46.00;;;18.90;99.90;;;;;;5013121;28;20445;-85
2022/08/19 02:55:49;;;;;;;52.23;46.70;;;18.90;99.90;;;;;;5006243;28;20470;-86
2022/08/19 02:58:15;;;;;;;54.30;47.17;;;18.90;99.90;;;;;;5007419;28;20459;-87
2022/08/19 03:00:43;;;;;;;56.20;45.80;;;18.90;99.90;;;;;;5006276;28;20433;-86
2022/08/19 03:03:08;;;;;;;53.77;47.60;;;18.90;99.90;;;;;;4980840;28;20795;-86
2022/08/19 03:05:34;;;;;;;54.50;47.53;;;18.90;99.90;;;;;;4991454;28;20475;-86
2022/08/19 03:08:00;;;;;;;55.03;46.80;;;18.90;99.90;;;;;;5003736;28;20213;-86
2022/08/19 03:10:25;;;;;;;54.40;47.20;;;18.90;1.00;;;;;;4987055;28;20210;-86
2022/08/19 03:12:51;;;;;;;59.57;49.87;;;18.90;1.00;;;;;;4986864;28;20196;-86
2022/08/19 03:15:16;;;;;;;54.93;47.37;;;18.80;1.00;;;;;;4988287;28;20219;-85
2022/08/19 03:17:42;;;;;;;57.50;48.47;;;18.80;1.00;;;;;;4983329;28;20199;-85
2022/08/19 03:20:08;;;;;;;53.20;46.80;;;18.80;1.00;;;;;;4992184;28;20207;-86
2022/08/19 03:22:33;;;;;;;52.30;46.60;;;18.80;1.00;;;;;;5006009;28;20213;-85
2022/08/19 03:24:59;;;;;;;59.30;47.20;;;18.80;1.00;;;;;;4990040;28;20959;-86
2022/08/19 03:27:25;;;;;;;55.07;49.07;;;18.80;1.00;;;;;;5012023;28;20233;-86
2022/08/19 03:29:51;;;;;;;55.53;47.77;;;18.80;1.00;;;;;;4991063;28;20209;-86
2022/08/19 03:32:16;;;;;;;54.20;47.43;;;18.80;1.00;;;;;;5014058;28;20249;-86
2022/08/19 03:34:42;;;;;;;58.90;49.23;;;18.80;1.00;;;;;;4986417;28;21146;-86
2022/08/19 03:37:12;;;;;;;54.80;45.83;;;18.80;1.00;;;;;;5001636;28;20207;-85
2022/08/19 03:39:38;;;;;;;59.93;48.50;;;18.80;1.00;;;;;;4985825;28;20196;-86
2022/08/19 03:42:05;;;;;;;56.33;47.47;;;18.80;1.00;;;;;;5001081;28;20791;-86
2022/08/19 03:44:32;;;;;;;70.40;48.77;;;18.80;1.00;;;;;;5007923;28;20531;-86
2022/08/19 03:46:59;;;;;;;54.20;47.60;;;18.80;1.00;;;;;;4986531;28;20456;-86
2022/08/19 03:49:28;;;;;;;63.40;46.80;;;18.80;1.00;;;;;;4986256;28;20452;-86
2022/08/19 03:51:56;;;;;;;60.80;48.20;;;18.80;1.00;;;;;;4991676;28;20861;-86
2022/08/19 03:54:27;;;;;;;56.33;46.33;;;18.80;1.00;;;;;;5007782;28;20547;-85
2022/08/19 03:56:55;;;;;;;55.50;45.87;;;18.80;1.00;;;;;;5010308;28;20466;-85
2022/08/19 03:59:26;;;;;;;60.80;46.27;;;18.80;1.00;;;;;;4986979;28;20431;-85
2022/08/19 04:01:54;;;;;;;52.47;44.57;;;18.80;1.00;;;;;;5013889;28;20510;-86
2022/08/19 04:04:19;;;;;;;57.17;45.27;;;18.80;1.00;;;;;;5006220;28;20466;-85
2022/08/19 04:06:46;;;;;;;54.50;45.00;;;18.80;1.00;;;;;;4997873;28;20450;-86
2022/08/19 04:09:12;;;;;;;55.90;45.50;;;18.80;1.00;;;;;;5008833;28;20177;-86
2022/08/19 04:11:44;;;;;;;54.33;45.23;;;18.80;1.00;;;;;;4980811;28;20450;-86
2022/08/19 04:14:16;;;;;;;59.00;47.13;;;18.80;1.00;;;;;;5002376;28;20211;-86
2022/08/19 04:16:44;;;;;;;64.83;48.87;;;18.80;1.00;;;;;;5002280;28;20999;-86
2022/08/19 04:19:09;;;;;;;65.43;48.90;;;18.70;1.00;;;;;;4985961;28;20438;-85
2022/08/19 04:21:35;;;;;;;59.57;49.60;;;18.70;1.00;;;;;;5013430;28;20451;-85
2022/08/19 04:24:02;;;;;;;63.67;51.93;;;18.70;1.00;;;;;;4996627;28;20176;-86
2022/08/19 04:26:31;;;;;;;57.97;47.20;;;18.70;1.00;;;;;;4992729;28;20196;-85
2022/08/19 04:28:59;;;;;;;66.50;49.20;;;18.70;1.00;;;;;;4992554;28;20444;-86
2022/08/19 04:31:27;;;;;;;59.33;49.23;;;18.70;1.00;;;;;;5000340;28;20444;-86
2022/08/19 04:33:54;;;;;;;65.93;50.83;;;18.70;1.00;;;;;;5007108;28;20437;-85
2022/08/19 04:36:22;;;;;;;61.90;50.70;;;18.70;1.00;;;;;;4988500;28;20874;-86
2022/08/19 04:38:48;;;;;;;62.27;50.67;;;18.60;1.00;;;;;;5012857;28;20521;-86
2022/08/19 04:43:59;;;;;;;63.73;50.60;;;18.60;1.00;;;;;;5011714;28;20438;-86
2022/08/19 04:46:25;;;;;;;64.00;50.90;;;18.60;1.00;;;;;;4990554;28;20459;-85
2022/08/19 04:48:52;;;;;;;73.07;51.30;;;18.70;1.00;;;;;;4986351;28;20212;-86
2022/08/19 04:51:18;;;;;;;69.00;52.37;;;18.70;1.00;;;;;;4990331;28;20466;-85
2022/08/19 04:53:43;;;;;;;69.13;52.77;;;18.70;1.00;;;;;;5014882;28;20431;-86
2022/08/19 04:56:16;;;;;;;65.30;49.50;;;18.80;1.00;;;;;;5007973;28;20271;-84
2022/08/19 04:58:43;;;;;;;65.70;49.80;;;18.80;1.00;;;;;;4988879;28;20194;-86
2022/08/19 05:01:13;;;;;;;64.10;52.57;;;18.90;1.00;;;;;;4996648;28;21046;-86
2022/08/19 05:03:39;;;;;;;70.30;50.17;;;19.00;1.00;;;;;;5003223;28;20464;-86
2022/08/19 05:06:11;;;;;;;64.00;49.70;;;19.00;1.00;;;;;;4986837;28;20536;-85
2022/08/19 05:08:42;;;;;;;66.27;50.20;;;19.10;1.00;;;;;;4990901;28;20469;-85
2022/08/19 05:11:17;;;;;;;67.00;50.70;;;19.10;1.00;;;;;;5013649;28;20439;-86
2022/08/19 05:13:44;;;;;;;60.80;49.80;;;19.20;1.00;;;;;;5010221;28;20451;-86
2022/08/19 05:16:12;;;;;;;70.73;51.17;;;19.30;1.00;;;;;;5009929;28;20600;-87
2022/08/19 05:24:08;;;;;;;63.07;52.23;;;19.70;1.00;;;;;;5010189;28;20435;-88
2022/08/19 05:26:39;;;;;;;71.20;51.30;;;20.20;99.90;;;;;;4990856;28;21009;-88
2022/08/19 05:29:07;;;;;;;59.30;47.53;;;20.70;99.90;;;;;;4995671;28;20444;-88
2022/08/19 05:31:32;;;;;;;55.50;46.27;;;21.70;1.00;;;;;;4993265;28;20467;-88
2022/08/19 05:33:58;;;;;;;55.80;46.00;;;22.10;1.00;;;;;;5014834;28;20934;-88
2022/08/19 05:36:28;;;;;;;53.97;43.17;;;22.20;1.00;;;;;;4986286;28;20215;-87
2022/08/19 05:38:53;;;;;;;55.10;44.60;;;22.20;1.00;;;;;;5000716;28;20184;-88
2022/08/19 05:41:20;;;;;;;59.13;47.77;;;22.20;1.00;;;;;;5012229;28;20465;-88
2022/08/19 05:43:46;;;;;;;52.83;44.50;;;22.30;22.90;;;;;;4993468;28;20181;-88
2022/08/19 05:46:19;;;;;;;49.07;43.73;;;22.60;99.90;;;;;;4983263;28;20468;-89
2022/08/19 05:48:46;;;;;;;49.03;42.90;;;23.20;99.90;;;;;;5011620;28;20213;-88
2022/08/19 05:51:12;;;;;;;53.43;44.57;;;23.70;99.90;;;;;;4990225;28;20439;-88
2022/08/19 05:53:38;;;;;;;46.37;41.33;;;24.30;1.00;;;;;;5007178;28;20440;-88
2022/08/19 05:56:09;;;;;;;46.67;41.23;;;25.50;99.90;;;;;;5010822;28;20473;-88
2022/08/19 05:58:36;;;;;;;52.53;42.23;;;27.00;1.00;;;;;;4993272;28;20195;-89
2022/08/19 06:01:05;;;;;;;47.77;42.83;;;27.70;99.90;;;;;;4993001;28;20438;-88
2022/08/19 06:03:33;;;;;;;45.17;40.40;;;28.10;99.90;;;;;;4995472;28;20418;-89
2022/08/19 06:06:02;;;;;;;46.20;41.03;;;29.10;99.90;;;;;;4980244;28;21013;-88
2022/08/19 06:08:28;;;;;;;46.97;41.07;;;29.70;99.90;;;;;;4987037;28;20449;-88
2022/08/19 06:10:54;;;;;;;51.90;43.20;;;29.00;99.90;;;;;;4985966;28;20431;-88
2022/08/19 06:13:22;;;;;;;44.87;40.37;;;29.10;99.90;;;;;;4987853;28;20438;-89
2022/08/19 06:15:48;;;;;;;45.77;41.27;;;30.20;99.90;;;;;;4987145;28;21021;-88
2022/08/19 06:18:14;;;;;;;44.47;40.13;;;32.00;99.90;;;;;;5001656;28;20433;-89
2022/08/19 06:20:41;;;;;;;46.90;42.07;;;32.80;99.90;;;;;;4987672;28;20693;-89
2022/08/19 06:23:08;;;;;;;45.53;40.90;;;33.00;99.90;;;;;;4985066;28;20433;-89
2022/08/19 06:25:34;;;;;;;50.70;43.60;;;32.00;99.90;;;;;;5007349;28;20433;-87
2022/08/19 06:28:00;;;;;;;47.37;42.47;;;31.60;99.90;;;;;;5002461;28;20447;-89
2022/08/19 06:30:26;;;;;;;47.63;42.80;;;31.60;99.90;;;;;;4987985;28;20440;-89
2022/08/19 06:32:52;;;;;;;50.30;45.23;;;31.30;99.90;;;;;;4992765;28;20791;-90
2022/08/19 06:35:18;;;;;;;48.60;43.40;;;31.30;99.90;;;;;;4992072;28;20286;-89
2022/08/19 06:37:44;;;;;;;50.73;44.20;;;31.30;99.90;;;;;;5005325;28;20198;-89
2022/08/19 06:40:12;;;;;;;49.33;44.03;;;31.40;99.90;;;;;;4988271;28;20264;-84
2022/08/19 06:42:38;;;;;;;52.40;45.17;;;31.30;99.90;;;;;;4986140;28;20438;-88
2022/08/19 06:45:04;;;;;;;48.63;43.43;;;31.80;99.90;;;;;;4990378;28;20446;-86
2022/08/19 06:47:32;;;;;;;50.70;44.73;;;31.90;99.90;;;;;;5002553;28;20457;-84
2022/08/19 06:50:03;;;;;;;54.63;46.00;;;31.80;99.90;;;;;;5003103;28;20421;-86
2022/08/19 06:52:30;;;;;;;50.00;43.17;;;31.20;99.90;;;;;;5003087;28;20508;-86
2022/08/19 06:54:56;;;;;;;48.83;43.60;;;29.70;99.90;;;;;;4984648;28;20558;-85
